sensor_id;sensor_type;location;lat;lon;timestamp;pressure;altitude;pressure_sealevel;temperature;humidity
75157;BME280;63736;50.076;8.198;2023-03-03T00:01:23;99853.41;;;3.77;56.63
75157;BME280;63736;50.076;8.198;2023-03-03T00:03:52;99857.03;;;3.74;57.45
75157;BME280;63736;50.076;8.198;2023-03-03T00:06:17;99853.66;;;3.72;57.52
75157;BME280;63736;50.076;8.198;2023-03-03T00:08:43;99857.13;;;3.73;57.58
75157;BME280;63736;50.076;8.198;2023-03-03T00:11:08;99868.63;;;3.72;57.43
75157;BME280;63736;50.076;8.198;2023-03-03T00:13:37;99855.50;;;3.70;57.62
75157;BME280;63736;50.076;8.198;2023-03-03T00:16:09;99860.06;;;3.67;58.13
75157;BME280;63736;50.076;8.198;2023-03-03T00:18:36;99862.16;;;3.60;58.53
75157;BME280;63736;50.076;8.198;2023-03-03T00:21:02;99876.38;;;3.57;58.46
75157;BME280;63736;50.076;8.198;2023-03-03T00:23:34;99880.03;;;3.55;58.77
75157;BME280;63736;50.076;8.198;2023-03-03T00:26:00;99883.75;;;3.51;58.91
75157;BME280;63736;50.076;8.198;2023-03-03T00:28:32;99874.19;;;3.48;59.25
75157;BME280;63736;50.076;8.198;2023-03-03T00:31:10;99879.41;;;3.50;59.92
75157;BME280;63736;50.076;8.198;2023-03-03T00:33:40;99880.19;;;3.52;59.90
75157;BME280;63736;50.076;8.198;2023-03-03T00:38:52;99889.13;;;3.49;61.02
75157;BME280;63736;50.076;8.198;2023-03-03T00:41:25;99901.50;;;3.49;61.03
75157;BME280;63736;50.076;8.198;2023-03-03T00:43:51;99899.78;;;3.47;61.36
75157;BME280;63736;50.076;8.198;2023-03-03T00:46:16;99901.53;;;3.47;62.26
75157;BME280;63736;50.076;8.198;2023-03-03T00:48:43;99903.50;;;3.43;62.41
75157;BME280;63736;50.076;8.198;2023-03-03T00:53:42;99900.34;;;3.35;63.38
75157;BME280;63736;50.076;8.198;2023-03-03T00:56:08;99905.72;;;3.34;64.29
75157;BME280;63736;50.076;8.198;2023-03-03T00:58:33;99904.16;;;3.29;64.78
75157;BME280;63736;50.076;8.198;2023-03-03T01:00:58;99901.78;;;3.23;64.59
75157;BME280;63736;50.076;8.198;2023-03-03T01:03:24;99906.50;;;3.17;65.28
75157;BME280;63736;50.076;8.198;2023-03-03T01:05:51;99901.50;;;3.10;67.05
75157;BME280;63736;50.076;8.198;2023-03-03T01:08:17;99899.78;;;3.09;67.56
75157;BME280;63736;50.076;8.198;2023-03-03T01:10:52;99903.44;;;3.07;67.64
75157;BME280;63736;50.076;8.198;2023-03-03T01:13:20;99903.66;;;3.02;67.26
75157;BME280;63736;50.076;8.198;2023-03-03T01:15:46;99896.03;;;2.96;67.28
75157;BME280;63736;50.076;8.198;2023-03-03T01:18:12;99896.31;;;2.90;67.64
75157;BME280;63736;50.076;8.198;2023-03-03T01:20:38;99898.38;;;2.83;68.29
75157;BME280;63736;50.076;8.198;2023-03-03T01:23:04;99895.00;;;2.79;68.82
75157;BME280;63736;50.076;8.198;2023-03-03T01:25:29;99901.38;;;2.75;69.10
75157;BME280;63736;50.076;8.198;2023-03-03T01:27:55;99890.97;;;2.72;70.04
75157;BME280;63736;50.076;8.198;2023-03-03T01:30:21;99901.44;;;2.74;71.37
75157;BME280;63736;50.076;8.198;2023-03-03T01:32:46;99899.66;;;2.74;71.43
75157;BME280;63736;50.076;8.198;2023-03-03T01:35:12;99897.72;;;2.78;72.23
75157;BME280;63736;50.076;8.198;2023-03-03T01:37:37;99897.59;;;2.81;72.37
75157;BME280;63736;50.076;8.198;2023-03-03T01:40:05;99885.34;;;2.80;72.26
75157;BME280;63736;50.076;8.198;2023-03-03T01:42:32;99886.25;;;2.79;73.25
75157;BME280;63736;50.076;8.198;2023-03-03T01:45:19;99893.31;;;2.78;73.50
75157;BME280;63736;50.076;8.198;2023-03-03T01:48:20;99895.88;;;2.80;73.66
75157;BME280;63736;50.076;8.198;2023-03-03T01:50:54;99884.47;;;2.79;74.19
75157;BME280;63736;50.076;8.198;2023-03-03T01:53:35;99881.81;;;2.79;74.76
75157;BME280;63736;50.076;8.198;2023-03-03T01:56:02;99882.91;;;2.75;73.96
75157;BME280;63736;50.076;8.198;2023-03-03T01:58:34;99882.13;;;2.73;74.17
75157;BME280;63736;50.076;8.198;2023-03-03T02:01:06;99878.69;;;2.71;74.71
75157;BME280;63736;50.076;8.198;2023-03-03T02:03:33;99888.31;;;2.72;74.97
75157;BME280;63736;50.076;8.198;2023-03-03T02:06:03;99882.25;;;2.70;75.51
75157;BME280;63736;50.076;8.198;2023-03-03T02:08:41;99877.91;;;2.69;75.50
75157;BME280;63736;50.076;8.198;2023-03-03T02:11:09;99877.97;;;2.68;75.45
75157;BME280;63736;50.076;8.198;2023-03-03T02:13:35;99888.75;;;2.63;75.70
75157;BME280;63736;50.076;8.198;2023-03-03T02:16:00;99879.28;;;2.59;75.57
75157;BME280;63736;50.076;8.198;2023-03-03T02:18:26;99883.91;;;2.54;75.74
75157;BME280;63736;50.076;8.198;2023-03-03T02:20:57;99879.63;;;2.51;77.03
75157;BME280;63736;50.076;8.198;2023-03-03T02:28:34;99879.75;;;2.27;76.43
75157;BME280;63736;50.076;8.198;2023-03-03T02:31:00;99882.13;;;2.13;76.17
75157;BME280;63736;50.076;8.198;2023-03-03T02:33:25;99887.28;;;1.95;76.59
75157;BME280;63736;50.076;8.198;2023-03-03T02:35:51;99886.16;;;1.80;76.80
75157;BME280;63736;50.076;8.198;2023-03-03T02:46:25;99892.38;;;1.35;79.21
75157;BME280;63736;50.076;8.198;2023-03-03T02:48:50;99883.63;;;1.35;81.39
75157;BME280;63736;50.076;8.198;2023-03-03T02:51:16;99896.56;;;1.41;83.41
75157;BME280;63736;50.076;8.198;2023-03-03T02:53:41;99890.91;;;1.50;84.47
75157;BME280;63736;50.076;8.198;2023-03-03T02:56:07;99899.09;;;1.64;86.64
75157;BME280;63736;50.076;8.198;2023-03-03T02:58:34;99903.00;;;1.76;87.44
75157;BME280;63736;50.076;8.198;2023-03-03T03:00:59;99897.03;;;1.93;88.95
75157;BME280;63736;50.076;8.198;2023-03-03T03:03:24;99886.97;;;2.03;88.79
75157;BME280;63736;50.076;8.198;2023-03-03T03:05:50;99886.56;;;2.12;89.65
75157;BME280;63736;50.076;8.198;2023-03-03T03:08:15;99884.44;;;2.21;88.54
75157;BME280;63736;50.076;8.198;2023-03-03T03:10:40;99886.09;;;2.23;88.71
75157;BME280;63736;50.076;8.198;2023-03-03T03:13:06;99885.97;;;2.26;88.79
75157;BME280;63736;50.076;8.198;2023-03-03T03:15:31;99885.03;;;2.27;89.12
75157;BME280;63736;50.076;8.198;2023-03-03T03:17:56;99877.91;;;2.29;89.92
75157;BME280;63736;50.076;8.198;2023-03-03T03:20:21;99882.28;;;2.30;90.92
75157;BME280;63736;50.076;8.198;2023-03-03T03:22:47;99885.75;;;2.31;90.46
75157;BME280;63736;50.076;8.198;2023-03-03T03:25:12;99881.34;;;2.31;90.57
75157;BME280;63736;50.076;8.198;2023-03-03T03:27:37;99886.63;;;2.31;91.68
75157;BME280;63736;50.076;8.198;2023-03-03T03:30:03;99882.28;;;2.30;91.21
75157;BME280;63736;50.076;8.198;2023-03-03T03:32:28;99892.91;;;2.29;92.34
75157;BME280;63736;50.076;8.198;2023-03-03T03:34:54;99887.75;;;2.26;92.42
75157;BME280;63736;50.076;8.198;2023-03-03T03:37:19;99887.06;;;2.21;92.63
75157;BME280;63736;50.076;8.198;2023-03-03T03:39:44;99890.78;;;2.17;93.69
75157;BME280;63736;50.076;8.198;2023-03-03T03:42:09;99888.28;;;2.13;95.05
75157;BME280;63736;50.076;8.198;2023-03-03T03:44:35;99884.91;;;2.10;95.57
75157;BME280;63736;50.076;8.198;2023-03-03T03:47:01;99891.19;;;2.07;95.61
75157;BME280;63736;50.076;8.198;2023-03-03T03:49:26;99892.25;;;2.03;95.15
75157;BME280;63736;50.076;8.198;2023-03-03T03:51:51;99894.06;;;2.01;96.82
75157;BME280;63736;50.076;8.198;2023-03-03T03:54:17;99891.50;;;2.00;98.21
75157;BME280;63736;50.076;8.198;2023-03-03T03:56:42;99900.25;;;2.00;99.42
75157;BME280;63736;50.076;8.198;2023-03-03T03:59:07;99901.00;;;2.04;100.00
75157;BME280;63736;50.076;8.198;2023-03-03T04:01:32;99895.78;;;2.02;100.00
75157;BME280;63736;50.076;8.198;2023-03-03T04:03:58;99890.44;;;2.04;100.00
75157;BME280;63736;50.076;8.198;2023-03-03T04:06:23;99901.97;;;2.01;100.00
75157;BME280;63736;50.076;8.198;2023-03-03T04:08:49;99901.19;;;1.99;100.00
75157;BME280;63736;50.076;8.198;2023-03-03T04:11:14;99900.41;;;1.97;100.00
75157;BME280;63736;50.076;8.198;2023-03-03T04:13:39;99899.66;;;1.93;100.00
75157;BME280;63736;50.076;8.198;2023-03-03T04:16:04;99897.09;;;1.92;100.00
75157;BME280;63736;50.076;8.198;2023-03-03T04:18:30;99899.06;;;1.87;100.00
75157;BME280;63736;50.076;8.198;2023-03-03T04:20:55;99896.63;;;1.82;100.00
75157;BME280;63736;50.076;8.198;2023-03-03T04:23:20;99899.38;;;1.79;100.00
75157;BME280;63736;50.076;8.198;2023-03-03T04:25:46;99902.22;;;1.74;100.00
75157;BME280;63736;50.076;8.198;2023-03-03T04:28:12;99901.50;;;1.71;100.00
75157;BME280;63736;50.076;8.198;2023-03-03T04:30:37;99912.34;;;1.63;100.00
75157;BME280;63736;50.076;8.198;2023-03-03T04:33:02;99911.75;;;1.56;100.00
75157;BME280;63736;50.076;8.198;2023-03-03T04:35:27;99914.72;;;1.47;100.00
75157;BME280;63736;50.076;8.198;2023-03-03T04:37:52;99915.06;;;1.39;100.00
75157;BME280;63736;50.076;8.198;2023-03-03T04:40:18;99914.31;;;1.36;100.00
75157;BME280;63736;50.076;8.198;2023-03-03T04:42:43;99923.28;;;1.30;100.00
75157;BME280;63736;50.076;8.198;2023-03-03T04:45:08;99922.75;;;1.22;100.00
75157;BME280;63736;50.076;8.198;2023-03-03T04:47:33;99927.44;;;1.13;100.00
75157;BME280;63736;50.076;8.198;2023-03-03T04:49:59;99932.13;;;1.05;100.00
75157;BME280;63736;50.076;8.198;2023-03-03T04:52:25;99924.44;;;1.01;100.00
75157;BME280;63736;50.076;8.198;2023-03-03T04:54:50;99921.13;;;0.95;100.00
75157;BME280;63736;50.076;8.198;2023-03-03T04:57:15;99928.19;;;0.93;100.00
75157;BME280;63736;50.076;8.198;2023-03-03T04:59:40;99925.63;;;0.92;100.00
75157;BME280;63736;50.076;8.198;2023-03-03T05:02:06;99930.94;;;0.90;100.00
75157;BME280;63736;50.076;8.198;2023-03-03T05:04:31;99927.56;;;0.87;100.00
75157;BME280;63736;50.076;8.198;2023-03-03T05:06:56;99919.91;;;0.80;100.00
75157;BME280;63736;50.076;8.198;2023-03-03T05:09:22;99922.81;;;0.73;100.00
75157;BME280;63736;50.076;8.198;2023-03-03T05:11:47;99920.53;;;0.63;100.00
75157;BME280;63736;50.076;8.198;2023-03-03T05:14:12;99920.88;;;0.54;100.00
75157;BME280;63736;50.076;8.198;2023-03-03T05:16:37;99922.88;;;0.47;100.00
75157;BME280;63736;50.076;8.198;2023-03-03T05:19:02;99927.44;;;0.42;100.00
75157;BME280;63736;50.076;8.198;2023-03-03T05:21:28;99922.22;;;0.41;100.00
75157;BME280;63736;50.076;8.198;2023-03-03T05:23:53;99927.44;;;0.42;100.00
75157;BME280;63736;50.076;8.198;2023-03-03T05:26:18;99935.25;;;0.44;100.00
75157;BME280;63736;50.076;8.198;2023-03-03T05:28:43;99935.88;;;0.51;100.00
75157;BME280;63736;50.076;8.198;2023-03-03T05:31:09;99943.63;;;0.55;100.00
75157;BME280;63736;50.076;8.198;2023-03-03T05:33:34;99942.38;;;0.65;100.00
75157;BME280;63736;50.076;8.198;2023-03-03T05:35:59;99941.88;;;0.79;100.00
75157;BME280;63736;50.076;8.198;2023-03-03T05:38:24;99936.16;;;0.92;100.00
75157;BME280;63736;50.076;8.198;2023-03-03T05:40:50;99941.19;;;0.98;100.00
75157;BME280;63736;50.076;8.198;2023-03-03T05:43:15;99941.06;;;1.01;100.00
75157;BME280;63736;50.076;8.198;2023-03-03T05:45:40;99937.44;;;1.04;100.00
75157;BME280;63736;50.076;8.198;2023-03-03T05:48:05;99937.44;;;1.04;100.00
75157;BME280;63736;50.076;8.198;2023-03-03T05:50:31;99944.50;;;1.03;100.00
75157;BME280;63736;50.076;8.198;2023-03-03T05:52:57;99940.22;;;1.01;100.00
75157;BME280;63736;50.076;8.198;2023-03-03T05:55:23;99956.91;;;0.99;100.00
75157;BME280;63736;50.076;8.198;2023-03-03T05:57:48;99951.66;;;0.99;100.00
75157;BME280;63736;50.076;8.198;2023-03-03T06:00:14;99950.00;;;0.97;100.00
75157;BME280;63736;50.076;8.198;2023-03-03T06:02:40;99965.94;;;0.92;100.00
75157;BME280;63736;50.076;8.198;2023-03-03T06:05:06;99970.41;;;0.90;100.00
75157;BME280;63736;50.076;8.198;2023-03-03T06:07:32;99962.50;;;0.90;100.00
75157;BME280;63736;50.076;8.198;2023-03-03T06:09:57;99964.25;;;0.90;100.00
75157;BME280;63736;50.076;8.198;2023-03-03T06:12:22;99969.59;;;0.88;100.00
75157;BME280;63736;50.076;8.198;2023-03-03T06:14:48;99966.00;;;0.91;100.00
75157;BME280;63736;50.076;8.198;2023-03-03T06:17:13;99969.59;;;0.88;100.00
75157;BME280;63736;50.076;8.198;2023-03-03T06:19:38;99976.63;;;0.88;100.00
75157;BME280;63736;50.076;8.198;2023-03-03T06:22:05;99981.03;;;0.87;100.00
75157;BME280;63736;50.076;8.198;2023-03-03T06:24:30;99977.41;;;0.90;100.00
75157;BME280;63736;50.076;8.198;2023-03-03T06:26:56;99986.13;;;0.92;100.00
75157;BME280;63736;50.076;8.198;2023-03-03T06:29:21;99989.59;;;0.92;100.00
75157;BME280;63736;50.076;8.198;2023-03-03T06:31:46;99993.88;;;0.95;100.00
75157;BME280;63736;50.076;8.198;2023-03-03T06:34:11;99986.75;;;0.98;100.00
75157;BME280;63736;50.076;8.198;2023-03-03T06:36:37;99994.47;;;1.03;100.00
75157;BME280;63736;50.076;8.198;2023-03-03T06:39:02;99991.56;;;1.11;100.00
75157;BME280;63736;50.076;8.198;2023-03-03T06:41:28;100001.75;;;1.20;100.00
75157;BME280;63736;50.076;8.198;2023-03-03T06:43:53;100004.47;;;1.41;100.00
75157;BME280;63736;50.076;8.198;2023-03-03T06:46:18;99998.88;;;1.72;100.00
75157;BME280;63736;50.076;8.198;2023-03-03T06:48:43;99996.06;;;2.20;100.00
75157;BME280;63736;50.076;8.198;2023-03-03T06:51:16;99998.63;;;2.83;100.00
75157;BME280;63736;50.076;8.198;2023-03-03T06:53:44;99993.59;;;3.55;100.00
75157;BME280;63736;50.076;8.198;2023-03-03T06:56:09;99994.13;;;4.17;100.00
75157;BME280;63736;50.076;8.198;2023-03-03T06:58:34;100005.13;;;4.62;93.75
75157;BME280;63736;50.076;8.198;2023-03-03T07:01:00;100008.56;;;4.97;89.19
75157;BME280;63736;50.076;8.198;2023-03-03T07:03:34;100014.13;;;5.42;83.15
75157;BME280;63736;50.076;8.198;2023-03-03T07:06:00;100014.88;;;6.08;79.31
75157;BME280;63736;50.076;8.198;2023-03-03T07:08:26;100005.88;;;6.72;74.48
75157;BME280;63736;50.076;8.198;2023-03-03T07:10:53;100006.66;;;7.32;70.16
75157;BME280;63736;50.076;8.198;2023-03-03T07:15:44;100020.69;;;7.90;63.68
75157;BME280;63736;50.076;8.198;2023-03-03T07:20:54;100033.16;;;8.17;59.09
75157;BME280;63736;50.076;8.198;2023-03-03T07:23:23;100029.78;;;8.27;57.34
75157;BME280;63736;50.076;8.198;2023-03-03T07:25:49;100021.75;;;8.15;56.85
75157;BME280;63736;50.076;8.198;2023-03-03T07:30:45;100027.47;;;9.28;53.48
75157;BME280;63736;50.076;8.198;2023-03-03T07:33:17;100033.50;;;9.55;51.96
75157;BME280;63736;50.076;8.198;2023-03-03T07:35:43;100041.16;;;9.97;50.82
75157;BME280;63736;50.076;8.198;2023-03-03T07:38:22;100037.78;;;10.44;48.66
75157;BME280;63736;50.076;8.198;2023-03-03T07:40:49;100049.81;;;10.49;46.90
75157;BME280;63736;50.076;8.198;2023-03-03T07:43:24;100051.19;;;10.55;46.87
75157;BME280;63736;50.076;8.198;2023-03-03T07:46:00;100052.41;;;10.51;46.17
75157;BME280;63736;50.076;8.198;2023-03-03T07:48:30;100057.81;;;10.73;45.43
75157;BME280;63736;50.076;8.198;2023-03-03T07:51:00;100069.00;;;10.06;46.15
75157;BME280;63736;50.076;8.198;2023-03-03T07:53:30;100069.03;;;9.93;46.60
75157;BME280;63736;50.076;8.198;2023-03-03T07:55:58;100070.59;;;10.08;45.97
75157;BME280;63736;50.076;8.198;2023-03-03T07:58:26;100076.50;;;9.51;46.96
75157;BME280;63736;50.076;8.198;2023-03-03T08:03:42;100068.22;;;9.80;46.70
75157;BME280;63736;50.076;8.198;2023-03-03T08:08:56;100065.34;;;10.31;45.33
75157;BME280;63736;50.076;8.198;2023-03-03T08:11:23;100077.31;;;10.63;44.02
75157;BME280;63736;50.076;8.198;2023-03-03T08:13:49;100093.53;;;10.48;43.85
75157;BME280;63736;50.076;8.198;2023-03-03T08:18:41;100100.09;;;9.94;45.67
75157;BME280;63736;50.076;8.198;2023-03-03T08:23:39;100084.88;;;11.27;43.37
75157;BME280;63736;50.076;8.198;2023-03-03T08:26:05;100090.97;;;11.86;42.42
75157;BME280;63736;50.076;8.198;2023-03-03T08:28:30;100097.47;;;12.38;41.30
75157;BME280;63736;50.076;8.198;2023-03-03T08:30:56;100096.84;;;12.46;40.64
75157;BME280;63736;50.076;8.198;2023-03-03T08:33:21;100103.03;;;11.80;40.73
75157;BME280;63736;50.076;8.198;2023-03-03T08:35:46;100102.41;;;11.77;41.16
75157;BME280;63736;50.076;8.198;2023-03-03T08:38:12;100102.78;;;11.38;42.30
75157;BME280;63736;50.076;8.198;2023-03-03T08:40:38;100089.75;;;12.01;41.77
75157;BME280;63736;50.076;8.198;2023-03-03T08:43:03;100091.34;;;11.93;40.71
75157;BME280;63736;50.076;8.198;2023-03-03T08:45:29;100095.84;;;12.15;40.83
75157;BME280;63736;50.076;8.198;2023-03-03T08:47:54;100095.97;;;12.46;40.86
75157;BME280;63736;50.076;8.198;2023-03-03T08:50:20;100104.91;;;12.67;39.46
75157;BME280;63736;50.076;8.198;2023-03-03T08:52:45;100098.88;;;12.86;38.91
75157;BME280;63736;50.076;8.198;2023-03-03T08:55:11;100103.78;;;13.02;38.74
75157;BME280;63736;50.076;8.198;2023-03-03T08:57:37;100108.69;;;12.97;38.64
75157;BME280;63736;50.076;8.198;2023-03-03T09:00:03;100107.69;;;12.77;39.11
75157;BME280;63736;50.076;8.198;2023-03-03T09:02:29;100112.28;;;12.54;39.12
75157;BME280;63736;50.076;8.198;2023-03-03T09:04:54;100112.97;;;12.67;39.43
75157;BME280;63736;50.076;8.198;2023-03-03T09:07:19;100121.13;;;12.33;39.23
75157;BME280;63736;50.076;8.198;2023-03-03T09:09:45;100119.34;;;12.00;40.56
75157;BME280;63736;50.076;8.198;2023-03-03T09:12:18;100116.03;;;12.07;40.67
75157;BME280;63736;50.076;8.198;2023-03-03T09:14:45;100119.06;;;12.14;39.65
75157;BME280;63736;50.076;8.198;2023-03-03T09:17:20;100130.03;;;12.22;40.54
75157;BME280;63736;50.076;8.198;2023-03-03T09:19:47;100126.84;;;12.72;38.80
75157;BME280;63736;50.076;8.198;2023-03-03T09:22:19;100111.78;;;13.14;38.76
75157;BME280;63736;50.076;8.198;2023-03-03T09:24:45;100112.59;;;13.35;37.42
75157;BME280;63736;50.076;8.198;2023-03-03T09:27:16;100120.63;;;13.35;37.82
75157;BME280;63736;50.076;8.198;2023-03-03T09:29:42;100119.09;;;13.54;37.60
75157;BME280;63736;50.076;8.198;2023-03-03T09:32:23;100128.75;;;12.82;38.12
75157;BME280;63736;50.076;8.198;2023-03-03T09:34:50;100138.34;;;12.52;38.88
75157;BME280;63736;50.076;8.198;2023-03-03T09:39:45;100144.19;;;11.10;42.01
75157;BME280;63736;50.076;8.198;2023-03-03T09:50:17;100160.22;;;9.35;46.45
75157;BME280;63736;50.076;8.198;2023-03-03T09:55:19;100166.84;;;8.49;50.23
75157;BME280;63736;50.076;8.198;2023-03-03T10:00:25;100155.69;;;7.72;52.93
75157;BME280;63736;50.076;8.198;2023-03-03T10:03:00;100163.19;;;7.65;54.44
75157;BME280;63736;50.076;8.198;2023-03-03T10:08:24;100174.94;;;7.02;57.53
75157;BME280;63736;50.076;8.198;2023-03-03T10:11:07;100168.66;;;6.88;59.04
75157;BME280;63736;50.076;8.198;2023-03-03T10:16:09;100180.03;;;6.44;61.74
75157;BME280;63736;50.076;8.198;2023-03-03T10:18:44;100182.00;;;6.24;63.32
75157;BME280;63736;50.076;8.198;2023-03-03T10:23:45;100180.34;;;6.06;65.63
75157;BME280;63736;50.076;8.198;2023-03-03T10:26:25;100184.28;;;6.15;65.84
75157;BME280;63736;50.076;8.198;2023-03-03T10:34:36;100178.69;;;6.03;66.70
75157;BME280;63736;50.076;8.198;2023-03-03T10:37:19;100171.63;;;6.04;67.16
75157;BME280;63736;50.076;8.198;2023-03-03T10:52:45;100186.00;;;6.00;67.22
75157;BME280;63736;50.076;8.198;2023-03-03T10:58:02;100194.75;;;5.84;67.79
75157;BME280;63736;50.076;8.198;2023-03-03T11:00:33;100198.66;;;5.93;67.54
75157;BME280;63736;50.076;8.198;2023-03-03T11:05:35;100186.28;;;6.27;66.66
75157;BME280;63736;50.076;8.198;2023-03-03T11:08:06;100181.66;;;6.47;66.46
75157;BME280;63736;50.076;8.198;2023-03-03T11:10:38;100181.03;;;6.57;65.67
75157;BME280;63736;50.076;8.198;2023-03-03T11:20:30;100176.94;;;6.52;66.72
75157;BME280;63736;50.076;8.198;2023-03-03T11:23:16;100173.84;;;6.59;65.84
75157;BME280;63736;50.076;8.198;2023-03-03T11:25:58;100180.50;;;6.67;65.61
75157;BME280;63736;50.076;8.198;2023-03-03T11:28:46;100177.59;;;6.71;64.86
75157;BME280;63736;50.076;8.198;2023-03-03T11:33:55;100172.69;;;6.80;63.26
75157;BME280;63736;50.076;8.198;2023-03-03T11:36:26;100172.94;;;6.75;63.82
75157;BME280;63736;50.076;8.198;2023-03-03T11:41:28;100167.13;;;6.68;63.19
75157;BME280;63736;50.076;8.198;2023-03-03T11:44:56;100173.84;;;6.59;62.28
75157;BME280;63736;50.076;8.198;2023-03-03T11:46:55;100156.34;;;6.55;63.75
75157;BME280;63736;50.076;8.198;2023-03-03T11:52:39;100157.13;;;6.57;63.02
75157;BME280;63736;50.076;8.198;2023-03-03T11:55:12;100154.09;;;6.49;63.25
75157;BME280;63736;50.076;8.198;2023-03-03T11:57:50;100150.13;;;6.40;63.58
75157;BME280;63736;50.076;8.198;2023-03-03T12:00:23;100144.66;;;6.43;64.28
75157;BME280;63736;50.076;8.198;2023-03-03T12:11:01;100121.75;;;6.73;65.00
75157;BME280;63736;50.076;8.198;2023-03-03T12:16:28;100104.00;;;6.73;64.15
75157;BME280;63736;50.076;8.198;2023-03-03T12:24:38;100101.97;;;6.93;63.15
75157;BME280;63736;50.076;8.198;2023-03-03T12:27:46;100094.00;;;6.93;62.78
75157;BME280;63736;50.076;8.198;2023-03-03T12:30:48;100101.13;;;6.92;63.10
75157;BME280;63736;50.076;8.198;2023-03-03T12:33:45;100097.34;;;6.97;63.88
75157;BME280;63736;50.076;8.198;2023-03-03T12:36:40;100090.81;;;7.02;63.26
75157;BME280;63736;50.076;8.198;2023-03-03T12:42:05;100087.50;;;6.99;63.53
75157;BME280;63736;50.076;8.198;2023-03-03T12:44:43;100080.94;;;7.04;64.32
75157;BME280;63736;50.076;8.198;2023-03-03T12:47:23;100072.03;;;7.05;64.03
75157;BME280;63736;50.076;8.198;2023-03-03T12:53:03;100075.34;;;7.09;64.79
75157;BME280;63736;50.076;8.198;2023-03-03T12:55:48;100070.44;;;7.17;64.84
75157;BME280;63736;50.076;8.198;2023-03-03T13:03:58;100066.94;;;7.31;62.59
75157;BME280;63736;50.076;8.198;2023-03-03T13:12:23;100058.84;;;7.18;61.76
75157;BME280;63736;50.076;8.198;2023-03-03T13:15:19;100057.63;;;7.24;62.48
75157;BME280;63736;50.076;8.198;2023-03-03T13:20:48;100058.84;;;7.47;61.24
75157;BME280;63736;50.076;8.198;2023-03-03T13:23:40;100057.53;;;7.54;60.45
75157;BME280;63736;50.076;8.198;2023-03-03T13:29:01;100053.81;;;7.57;59.41
75157;BME280;63736;50.076;8.198;2023-03-03T13:31:44;100045.66;;;7.60;60.55
75157;BME280;63736;50.076;8.198;2023-03-03T13:37:12;100049.44;;;7.70;60.01
75157;BME280;63736;50.076;8.198;2023-03-03T13:42:42;100045.34;;;7.79;58.35
75157;BME280;63736;50.076;8.198;2023-03-03T13:45:24;100043.22;;;7.84;58.27
75157;BME280;63736;50.076;8.198;2023-03-03T13:50:56;100031.13;;;7.93;58.05
75157;BME280;63736;50.076;8.198;2023-03-03T13:53:37;100036.25;;;7.96;56.95
75157;BME280;63736;50.076;8.198;2023-03-03T13:59:23;100034.66;;;7.93;55.47
75157;BME280;63736;50.076;8.198;2023-03-03T14:02:09;100031.13;;;7.93;55.66
75157;BME280;63736;50.076;8.198;2023-03-03T14:04:52;100024.56;;;7.99;56.21
75157;BME280;63736;50.076;8.198;2023-03-03T14:07:27;100027.78;;;8.04;55.72
75157;BME280;63736;50.076;8.198;2023-03-03T14:10:08;100019.81;;;8.04;54.19
75157;BME280;63736;50.076;8.198;2023-03-03T14:12:43;100017.03;;;8.05;54.14
75157;BME280;63736;50.076;8.198;2023-03-03T14:15:28;100018.66;;;8.08;53.78
75157;BME280;63736;50.076;8.198;2023-03-03T14:18:02;100016.94;;;8.07;50.89
75157;BME280;63736;50.076;8.198;2023-03-03T14:23:52;100016.66;;;7.97;50.91
75157;BME280;63736;50.076;8.198;2023-03-03T14:26:21;100013.06;;;7.98;50.55
75157;BME280;63736;50.076;8.198;2023-03-03T14:28:49;100014.88;;;7.98;50.77
75157;BME280;63736;50.076;8.198;2023-03-03T14:31:22;100009.56;;;7.98;50.58
75157;BME280;63736;50.076;8.198;2023-03-03T14:34:14;100013.06;;;7.98;49.67
75157;BME280;63736;50.076;8.198;2023-03-03T14:36:51;100016.59;;;7.99;49.99
75157;BME280;63736;50.076;8.198;2023-03-03T14:39:40;100020.19;;;7.98;49.52
75157;BME280;63736;50.076;8.198;2023-03-03T14:44:55;100010.59;;;7.95;49.44
75157;BME280;63736;50.076;8.198;2023-03-03T14:47:27;100020.47;;;7.93;48.82
75157;BME280;63736;50.076;8.198;2023-03-03T14:49:54;100008.06;;;7.93;49.30
75157;BME280;63736;50.076;8.198;2023-03-03T14:52:28;100007.19;;;7.93;48.52
75157;BME280;63736;50.076;8.198;2023-03-03T14:54:59;100007.00;;;7.96;49.34
75157;BME280;63736;50.076;8.198;2023-03-03T15:02:41;100002.69;;;8.08;47.73
75157;BME280;63736;50.076;8.198;2023-03-03T15:05:19;100002.47;;;8.11;47.05
75157;BME280;63736;50.076;8.198;2023-03-03T15:07:54;100000.69;;;8.12;47.37
75157;BME280;63736;50.076;8.198;2023-03-03T15:10:35;100011.22;;;8.13;46.44
75157;BME280;63736;50.076;8.198;2023-03-03T15:18:31;99998.97;;;8.10;46.47
75157;BME280;63736;50.076;8.198;2023-03-03T15:21:04;100001.63;;;8.10;46.61
75157;BME280;63736;50.076;8.198;2023-03-03T15:26:58;100001.25;;;8.02;46.46
75157;BME280;63736;50.076;8.198;2023-03-03T15:32:27;99982.19;;;7.96;47.13
75157;BME280;63736;50.076;8.198;2023-03-03T15:35:22;99994.00;;;7.91;48.13
75157;BME280;63736;50.076;8.198;2023-03-03T15:37:57;99994.59;;;7.82;47.48
75157;BME280;63736;50.076;8.198;2023-03-03T15:40:41;100001.91;;;7.78;47.47
75157;BME280;63736;50.076;8.198;2023-03-03T15:43:26;99997.66;;;7.76;47.53
75157;BME280;63736;50.076;8.198;2023-03-03T15:56:49;100008.09;;;7.65;48.76
75157;BME280;63736;50.076;8.198;2023-03-03T16:02:32;99999.69;;;7.58;48.64
75157;BME280;63736;50.076;8.198;2023-03-03T16:05:21;100002.53;;;7.55;49.25
75157;BME280;63736;50.076;8.198;2023-03-03T16:08:14;100002.66;;;7.53;49.39
75157;BME280;63736;50.076;8.198;2023-03-03T16:16:19;100005.97;;;7.42;49.84
75157;BME280;63736;50.076;8.198;2023-03-03T16:19:00;100010.72;;;7.37;50.50
75157;BME280;63736;50.076;8.198;2023-03-03T16:24:55;100018.22;;;7.31;50.71
75157;BME280;63736;50.076;8.198;2023-03-03T16:27:23;100015.00;;;7.25;50.57
75157;BME280;63736;50.076;8.198;2023-03-03T16:30:27;100019.75;;;7.20;50.96
75157;BME280;63736;50.076;8.198;2023-03-03T16:35:34;100021.25;;;7.10;50.71
75157;BME280;63736;50.076;8.198;2023-03-03T16:38:10;100021.56;;;7.05;51.15